Time;durP1;ratioP1;P1;durP2;ratioP2;P2;SDS_P1;SDS_P2;PMS_P1;PMS_P2;Temp;Humidity;BMP_temperature;BMP_pressure;BME280_temperature;BME280_humidity;BME280_pressure;Samples;Min_cycle;Max_cycle;Signal;HPM_P1;HPM_P2
2022/06/21 00:01:37;;;;;;;;;;;10.40;99.90;;;;;;5014593;28;20401;-78
2022/06/21 00:04:04;;;;;;;;;;;10.50;99.90;;;;;;5014545;28;19910;-77
2022/06/21 00:06:31;;;;;;;;;;;10.50;99.90;;;;;;5014441;28;20293;-79
2022/06/21 00:08:57;;;;;;;;;;;10.60;99.90;;;;;;5013319;28;20278;-78
2022/06/21 00:11:26;;;;;;;;;;;10.60;99.90;;;;;;5014433;28;19909;-78
2022/06/21 00:13:53;;;;;;;;;;;10.70;99.90;;;;;;5014404;28;19905;-79
2022/06/21 00:16:20;;;;;;;;;;;10.70;99.90;;;;;;5014557;28;20293;-78
2022/06/21 00:18:48;;;;;;;;;;;10.80;99.90;;;;;;5014610;28;20003;-78
2022/06/21 00:21:25;;;;;;;;;;;10.90;99.90;;;;;;5014387;28;19909;-77
2022/06/21 00:23:53;;;;;;;;;;;10.90;99.90;;;;;;5014929;28;19905;-77
2022/06/21 00:26:20;;;;;;;;;;;11.00;99.90;;;;;;5014374;28;19905;-77
2022/06/21 00:28:47;;;;;;;;;;;11.00;99.90;;;;;;5014339;28;20000;-78
2022/06/21 00:31:17;;;;;;;;;;;11.10;99.90;;;;;;5014394;28;19906;-78
2022/06/21 00:33:44;;;;;;;;;;;11.10;99.90;;;;;;5014208;28;19909;-78
2022/06/21 00:36:15;;;;;;;;;;;11.20;99.90;;;;;;5014169;28;19992;-78
2022/06/21 00:38:42;;;;;;;;;;;11.20;99.90;;;;;;5013974;28;19943;-77
2022/06/21 00:41:10;;;;;;;;;;;11.30;99.90;;;;;;5014324;28;19905;-78
2022/06/21 00:43:39;;;;;;;;;;;11.30;99.90;;;;;;5014101;28;19905;-78
2022/06/21 00:46:21;;;;;;;;;;;11.30;99.90;;;;;;5014251;28;19988;-78
2022/06/21 00:48:49;;;;;;;;;;;11.30;99.90;;;;;;5014079;28;19944;-75
2022/06/21 00:51:15;;;;;;;;;;;11.40;99.90;;;;;;5014073;28;19992;-78
2022/06/21 00:53:53;;;;;;;;;;;11.40;99.90;;;;;;5014099;28;19960;-78
2022/06/21 00:56:22;;;;;;;;;;;11.50;99.90;;;;;;5014091;28;20346;-77
2022/06/21 00:58:48;;;;;;;;;;;11.60;99.90;;;;;;5013846;28;20003;-78
2022/06/21 01:01:23;;;;;;;;;;;11.70;99.90;;;;;;5013929;28;19909;-76
2022/06/21 01:03:50;;;;;;;;;;;11.70;99.90;;;;;;5012618;28;19905;-77
2022/06/21 01:06:22;;;;;;;;;;;11.80;99.90;;;;;;5013496;28;19922;-78
2022/06/21 01:08:51;;;;;;;;;;;11.80;99.90;;;;;;5013915;28;19972;-78
2022/06/21 01:11:20;;;;;;;;;;;11.90;99.90;;;;;;5013801;28;19909;-77
2022/06/21 01:13:49;;;;;;;;;;;12.00;99.90;;;;;;5013770;28;19912;-78
2022/06/21 01:16:16;;;;;;;;;;;12.00;99.90;;;;;;5013713;28;20400;-78
2022/06/21 01:18:44;;;;;;;;;;;12.10;99.90;;;;;;5013679;28;20011;-78
2022/06/21 01:21:12;;;;;;;;;;;12.20;99.90;;;;;;5014464;28;20343;-77
2022/06/21 01:23:39;;;;;;;;;;;12.20;99.90;;;;;;5013836;28;20008;-78
2022/06/21 01:26:19;;;;;;;;;;;12.30;99.90;;;;;;5013658;28;19921;-78
2022/06/21 01:28:46;;;;;;;;;;;12.40;99.90;;;;;;5013787;28;19905;-77
2022/06/21 01:31:13;;;;;;;;;;;12.50;99.90;;;;;;5013876;28;20394;-78
2022/06/21 01:33:41;;;;;;;;;;;12.60;99.90;;;;;;5014037;28;20010;-78
2022/06/21 01:36:13;;;;;;;;;;;12.60;99.90;;;;;;5013554;28;20000;-78
2022/06/21 01:38:43;;;;;;;;;;;12.70;99.90;;;;;;5013530;28;20393;-78
2022/06/21 01:41:13;;;;;;;;;;;12.80;99.90;;;;;;5012294;28;19905;-78
2022/06/21 01:43:41;;;;;;;;;;;12.80;99.90;;;;;;5013616;28;19906;-79
2022/06/21 01:46:09;;;;;;;;;;;12.90;99.90;;;;;;5013631;28;20282;-78
2022/06/21 01:48:41;;;;;;;;;;;12.90;99.90;;;;;;5013840;28;19906;-77
2022/06/21 01:51:09;;;;;;;;;;;13.00;99.90;;;;;;5015806;28;19910;-77
2022/06/21 01:53:36;;;;;;;;;;;13.00;99.90;;;;;;5016847;28;19963;-78
2022/06/21 01:56:06;;;;;;;;;;;13.10;99.90;;;;;;5017205;28;19906;-74
2022/06/21 01:58:35;;;;;;;;;;;13.20;99.90;;;;;;5016949;28;19914;-78
2022/06/21 02:01:07;;;;;;;;;;;13.20;99.90;;;;;;5015841;28;19905;-78
2022/06/21 02:03:35;;;;;;;;;;;13.30;99.90;;;;;;5016736;28;19906;-78
2022/06/21 02:06:07;;;;;;;;;;;13.30;99.90;;;;;;5016668;28;19913;-78
2022/06/21 02:08:37;;;;;;;;;;;13.40;99.90;;;;;;5017168;28;20009;-78
2022/06/21 02:11:07;;;;;;;;;;;13.30;99.90;;;;;;5016723;28;19909;-79
2022/06/21 02:13:36;;;;;;;;;;;13.40;99.90;;;;;;5016567;28;19911;-78
2022/06/21 02:16:05;;;;;;;;;;;13.40;99.90;;;;;;5016395;28;19905;-78
2022/06/21 02:18:34;;;;;;;;;;;13.40;99.90;;;;;;5016407;28;19956;-78
2022/06/21 02:21:01;;;;;;;;;;;13.40;99.90;;;;;;5016493;28;19906;-78
2022/06/21 02:23:27;;;;;;;;;;;13.50;99.90;;;;;;5016494;28;20414;-79
2022/06/21 02:25:56;;;;;;;;;;;13.50;99.90;;;;;;5016498;28;19988;-75
2022/06/21 02:28:23;;;;;;;;;;;13.60;99.90;;;;;;5016418;28;19905;-78
2022/06/21 02:30:51;;;;;;;;;;;13.70;99.90;;;;;;5016335;28;19935;-78
2022/06/21 02:33:22;;;;;;;;;;;13.70;99.90;;;;;;5016183;28;19905;-75
2022/06/21 02:35:58;;;;;;;;;;;13.80;99.90;;;;;;5016291;28;19917;-78
2022/06/21 02:38:27;;;;;;;;;;;13.90;99.90;;;;;;5016229;28;19960;-78
2022/06/21 02:41:01;;;;;;;;;;;13.90;99.90;;;;;;5016278;28;19909;-78
2022/06/21 02:43:35;;;;;;;;;;;13.90;99.90;;;;;;5016124;28;19924;-78
2022/06/21 02:46:08;;;;;;;;;;;13.90;99.90;;;;;;5016053;28;19906;-78
2022/06/21 02:49:01;;;;;;;;;;;13.90;99.90;;;;;;5016030;28;20351;-78
2022/06/21 02:51:32;;;;;;;;;;;14.00;99.90;;;;;;5014735;28;19963;-78
2022/06/21 02:54:01;;;;;;;;;;;14.00;99.90;;;;;;5015710;28;19905;-78
2022/06/21 02:56:33;;;;;;;;;;;14.10;99.90;;;;;;5015914;28;19906;-79
2022/06/21 02:59:01;;;;;;;;;;;14.30;99.90;;;;;;5015743;28;19914;-78
2022/06/21 03:01:39;;;;;;;;;;;14.30;99.90;;;;;;5015664;28;19997;-78
2022/06/21 03:04:07;;;;;;;;;;;14.40;99.90;;;;;;5015552;28;19963;-78
2022/06/21 03:06:34;;;;;;;;;;;14.40;99.90;;;;;;5015592;28;19918;-77
2022/06/21 03:09:08;;;;;;;;;;;14.40;99.90;;;;;;5015615;28;19948;-78
2022/06/21 03:11:36;;;;;;;;;;;14.50;99.90;;;;;;5015480;28;19907;-78
2022/06/21 03:14:06;;;;;;;;;;;14.50;99.90;;;;;;5015551;28;19914;-79
2022/06/21 03:16:33;;;;;;;;;;;14.60;99.90;;;;;;5015422;28;19909;-79
2022/06/21 03:19:01;;;;;;;;;;;14.60;99.90;;;;;;5015305;28;19913;-78
2022/06/21 03:21:30;;;;;;;;;;;14.70;99.90;;;;;;5015418;28;19906;-79
2022/06/21 03:23:57;;;;;;;;;;;14.70;99.90;;;;;;5015310;28;19941;-78
2022/06/21 03:26:26;;;;;;;;;;;14.70;99.90;;;;;;5015478;28;19975;-77
2022/06/21 03:28:52;;;;;;;;;;;14.80;99.90;;;;;;5015165;28;19905;-78
2022/06/21 03:31:25;;;;;;;;;;;14.80;99.90;;;;;;5013985;28;19905;-78
2022/06/21 03:33:57;;;;;;;;;;;14.80;99.90;;;;;;5014910;28;19972;-78
2022/06/21 03:36:24;;;;;;;;;;;14.90;99.90;;;;;;5015199;28;20425;-79
2022/06/21 03:38:59;;;;;;;;;;;14.80;99.90;;;;;;5015086;28;19967;-77
2022/06/21 03:41:45;;;;;;;;;;;14.80;99.90;;;;;;5014869;28;20350;-78
2022/06/21 03:44:18;;;;;;;;;;;14.80;99.90;;;;;;5014898;28;20358;-78
2022/06/21 03:46:56;;;;;;;;;;;14.80;99.90;;;;;;5014912;28;20278;-78
2022/06/21 03:49:29;;;;;;;;;;;14.90;99.90;;;;;;5014986;28;19953;-79
2022/06/21 03:51:57;;;;;;;;;;;14.90;99.90;;;;;;5014899;28;19916;-78
2022/06/21 03:54:27;;;;;;;;;;;14.90;99.90;;;;;;5014632;28;20350;-79
2022/06/21 03:56:56;;;;;;;;;;;15.00;99.90;;;;;;5014662;28;19906;-79
2022/06/21 03:59:27;;;;;;;;;;;15.00;99.90;;;;;;5014740;28;20015;-78
2022/06/21 04:02:09;;;;;;;;;;;15.10;99.90;;;;;;5014975;28;20016;-79
2022/06/21 04:04:43;;;;;;;;;;;15.10;99.90;;;;;;5014867;28;19910;-78
2022/06/21 04:07:17;;;;;;;;;;;15.10;99.90;;;;;;5014540;28;19925;-79
2022/06/21 04:09:51;;;;;;;;;;;15.00;99.90;;;;;;5014618;28;20362;-79
2022/06/21 04:12:33;;;;;;;;;;;15.00;99.90;;;;;;5014563;28;19905;-78
2022/06/21 04:15:12;;;;;;;;;;;15.00;99.90;;;;;;5014275;28;19906;-79
2022/06/21 04:17:42;;;;;;;;;;;15.00;99.90;;;;;;5014448;28;20003;-78
2022/06/21 04:20:31;;;;;;;;;;;15.00;99.90;;;;;;5014472;28;19905;-79
2022/06/21 04:23:10;;;;;;;;;;;15.00;99.90;;;;;;5011307;28;20385;-78
2022/06/21 04:25:40;;;;;;;;;;;14.90;99.90;;;;;;5014345;28;19905;-78
2022/06/21 04:28:29;;;;;;;;;;;14.90;99.90;;;;;;5014355;28;19906;-78
2022/06/21 04:30:56;;;;;;;;;;;14.90;99.90;;;;;;5014364;28;19905;-78
2022/06/21 04:33:25;;;;;;;;;;;15.00;99.90;;;;;;5014346;28;19905;-79
2022/06/21 04:35:58;;;;;;;;;;;15.00;99.90;;;;;;5014092;28;19905;-78
2022/06/21 04:38:48;;;;;;;;;;;15.10;99.90;;;;;;5014097;28;19917;-79
2022/06/21 04:41:21;;;;;;;;;;;15.10;99.90;;;;;;5011270;28;19963;-79
2022/06/21 04:43:54;;;;;;;;;;;15.10;99.90;;;;;;5014002;28;19909;-78
2022/06/21 04:46:20;;;;;;;;;;;15.10;99.90;;;;;;5014437;28;19912;-79
2022/06/21 04:48:47;;;;;;;;;;;15.10;99.90;;;;;;5014141;28;19905;-79
2022/06/21 04:51:23;;;;;;;;;;;15.00;99.90;;;;;;5014486;28;19912;-78
2022/06/21 04:53:59;;;;;;;;;;;15.00;99.90;;;;;;5014071;28;20317;-79
2022/06/21 04:56:36;;;;;;;;;;;15.00;99.90;;;;;;5014061;28;19906;-78
2022/06/21 04:59:08;;;;;;;;;;;15.00;99.90;;;;;;5013967;28;19920;-79
2022/06/21 05:01:37;;;;;;;;;;;15.00;99.90;;;;;;5014055;28;19916;-79
2022/06/21 05:04:07;;;;;;;;;;;15.10;99.90;;;;;;5013916;28;20345;-79
2022/06/21 05:06:35;;;;;;;;;;;15.00;99.90;;;;;;5013693;28;19921;-79
2022/06/21 05:09:01;;;;;;;;;;;15.00;99.90;;;;;;5012489;28;19943;-78
2022/06/21 05:11:28;;;;;;;;;;;15.00;99.90;;;;;;5013782;28;19913;-79
2022/06/21 05:13:56;;;;;;;;;;;15.00;99.90;;;;;;5013625;28;19909;-79
2022/06/21 05:16:36;;;;;;;;;;;15.00;99.90;;;;;;5013968;28;19905;-79
2022/06/21 05:19:12;;;;;;;;;;;15.00;99.90;;;;;;5013904;28;19913;-79
2022/06/21 05:21:40;;;;;;;;;;;15.00;99.90;;;;;;5014102;28;19909;-79
2022/06/21 05:24:07;;;;;;;;;;;15.00;99.90;;;;;;5013693;28;20377;-79
2022/06/21 05:26:59;;;;;;;;;;;14.90;99.90;;;;;;5017376;28;19913;-79
2022/06/21 05:29:46;;;;;;;;;;;15.00;99.90;;;;;;5016476;28;19944;-79
2022/06/21 05:32:21;;;;;;;;;;;15.00;99.90;;;;;;5017438;28;19912;-79
2022/06/21 05:34:53;;;;;;;;;;;14.90;99.90;;;;;;5017109;28;19932;-79
2022/06/21 05:37:19;;;;;;;;;;;14.90;99.90;;;;;;5017238;28;19940;-78
2022/06/21 05:39:48;;;;;;;;;;;15.00;99.90;;;;;;5017445;28;20063;-79
2022/06/21 05:42:18;;;;;;;;;;;15.00;99.90;;;;;;5017257;28;19912;-72
2022/06/21 05:44:55;;;;;;;;;;;15.00;99.90;;;;;;5017000;28;19909;-79
2022/06/21 05:47:27;;;;;;;;;;;15.00;99.90;;;;;;5017203;28;19905;-79
2022/06/21 05:49:55;;;;;;;;;;;14.90;99.90;;;;;;5017126;28;19924;-79
2022/06/21 05:52:33;;;;;;;;;;;14.90;99.90;;;;;;5017359;28;19963;-79
2022/06/21 05:55:12;;;;;;;;;;;14.80;99.90;;;;;;5016883;28;19968;-78
2022/06/21 05:57:40;;;;;;;;;;;14.80;99.90;;;;;;5016800;28;19951;-78
2022/06/21 06:00:20;;;;;;;;;;;14.80;99.90;;;;;;5016999;28;20055;-78
2022/06/21 06:02:48;;;;;;;;;;;14.80;99.90;;;;;;5016960;28;19948;-79
2022/06/21 06:05:22;;;;;;;;;;;14.80;99.90;;;;;;5016480;28;19905;-78
2022/06/21 06:07:52;;;;;;;;;;;14.70;99.90;;;;;;5016797;28;19918;-78
2022/06/21 06:10:20;;;;;;;;;;;14.70;99.90;;;;;;5016616;28;19905;-79
2022/06/21 06:12:49;;;;;;;;;;;14.60;99.90;;;;;;5016753;28;20377;-79
2022/06/21 06:15:24;;;;;;;;;;;14.60;99.90;;;;;;5016405;28;19961;-79
2022/06/21 06:18:03;;;;;;;;;;;14.60;99.90;;;;;;5016438;28;19909;-79
2022/06/21 06:20:32;;;;;;;;;;;14.60;99.90;;;;;;5016591;28;19909;-79
2022/06/21 06:23:07;;;;;;;;;;;14.60;99.90;;;;;;5016572;28;20270;-79
2022/06/21 06:25:33;;;;;;;;;;;14.60;99.90;;;;;;5016478;28;19906;-79
2022/06/21 06:28:15;;;;;;;;;;;14.60;99.90;;;;;;5016454;28;19995;-79
2022/06/21 06:30:46;;;;;;;;;;;14.60;99.90;;;;;;5016391;28;19905;-79
2022/06/21 06:33:15;;;;;;;;;;;14.70;99.90;;;;;;5016199;28;20345;-77
2022/06/21 06:35:43;;;;;;;;;;;14.60;99.90;;;;;;5015887;28;19984;-80
2022/06/21 06:38:12;;;;;;;;;;;14.60;99.90;;;;;;5016072;28;19913;-78
2022/06/21 06:40:42;;;;;;;;;;;14.60;99.90;;;;;;5016115;28;19905;-78
2022/06/21 06:43:30;;;;;;;;;;;14.60;99.90;;;;;;5016331;28;19920;-79
2022/06/21 06:45:58;;;;;;;;;;;14.60;99.90;;;;;;5016220;28;20412;-79
2022/06/21 06:48:32;;;;;;;;;;;14.60;99.90;;;;;;5016176;28;20358;-78
2022/06/21 06:51:05;;;;;;;;;;;14.60;99.90;;;;;;5016165;28;19975;-79
2022/06/21 06:53:44;;;;;;;;;;;14.60;99.90;;;;;;5016191;28;20370;-79
2022/06/21 06:56:19;;;;;;;;;;;14.60;99.90;;;;;;5016548;28;19906;-79
2022/06/21 06:58:56;;;;;;;;;;;14.60;99.90;;;;;;5015808;28;19914;-79
2022/06/21 07:01:29;;;;;;;;;;;14.60;99.90;;;;;;5015858;28;20243;-79
2022/06/21 07:04:01;;;;;;;;;;;14.60;99.90;;;;;;5015669;28;19905;-78
2022/06/21 07:06:47;;;;;;;;;;;14.50;99.90;;;;;;5015554;28;20282;-79
2022/06/21 07:09:18;;;;;;;;;;;14.50;99.90;;;;;;5015438;28;19913;-79
2022/06/21 07:11:50;;;;;;;;;;;14.50;99.90;;;;;;5014264;28;19906;-78
2022/06/21 07:14:23;;;;;;;;;;;14.50;99.90;;;;;;5015371;28;19988;-79
2022/06/21 07:17:09;;;;;;;;;;;14.40;99.90;;;;;;5015722;28;19915;-78
2022/06/21 07:19:36;;;;;;;;;;;14.40;99.90;;;;;;5011581;28;19960;-79
2022/06/21 07:22:09;;;;;;;;;;;14.50;99.90;;;;;;5015430;28;19905;-79
2022/06/21 07:24:35;;;;;;;;;;;14.60;99.90;;;;;;5015211;28;19995;-78
2022/06/21 07:27:08;;;;;;;;;;;14.70;99.90;;;;;;5015291;28;19906;-79
2022/06/21 07:29:35;;;;;;;;;;;14.60;99.90;;;;;;5015312;28;19909;-77
2022/06/21 07:32:12;;;;;;;;;;;14.50;99.90;;;;;;5015415;28;20286;-79
2022/06/21 07:34:45;;;;;;;;;;;14.50;99.90;;;;;;5014933;28;19905;-79
2022/06/21 07:37:15;;;;;;;;;;;14.40;99.90;;;;;;5014057;28;20373;-78
2022/06/21 07:39:44;;;;;;;;;;;14.40;99.90;;;;;;5015427;28;19967;-79
2022/06/21 07:42:13;;;;;;;;;;;14.40;99.90;;;;;;5014972;28;19951;-79
2022/06/21 07:44:55;;;;;;;;;;;14.40;99.90;;;;;;5015025;28;20274;-78
2022/06/21 07:47:27;;;;;;;;;;;14.30;99.90;;;;;;5015048;28;19910;-79
2022/06/21 07:50:02;;;;;;;;;;;14.30;99.90;;;;;;5014889;28;19913;-78
2022/06/21 07:52:34;;;;;;;;;;;14.30;99.90;;;;;;5014864;28;19959;-78
2022/06/21 07:55:07;;;;;;;;;;;14.30;99.90;;;;;;5014758;28;19912;-78
2022/06/21 07:57:39;;;;;;;;;;;14.20;99.90;;;;;;5014856;28;19906;-79
2022/06/21 08:00:11;;;;;;;;;;;14.20;99.90;;;;;;5014643;28;20282;-79
2022/06/21 08:08:26;;;;;;;;;;;14.10;99.90;;;;;;5014858;28;20380;-79
2022/06/21 08:11:09;;;;;;;;;;;14.10;99.90;;;;;;5014471;28;19912;-79
2022/06/21 08:13:36;;;;;;;;;;;14.00;99.90;;;;;;5014398;28;20021;-79
2022/06/21 08:16:25;;;;;;;;;;;14.00;99.90;;;;;;5014462;28;19909;-78
2022/06/21 08:18:55;;;;;;;;;;;13.90;99.90;;;;;;5011406;28;19913;-79
2022/06/21 08:21:24;;;;;;;;;;;13.90;99.90;;;;;;5015065;28;19929;-78
2022/06/21 08:23:55;;;;;;;;;;;13.90;99.90;;;;;;5014411;28;20370;-77
2022/06/21 08:26:27;;;;;;;;;;;13.80;99.90;;;;;;5014973;28;19975;-77
2022/06/21 08:29:01;;;;;;;;;;;13.70;99.90;;;;;;5014943;28;19952;-75
2022/06/21 08:31:31;;;;;;;;;;;13.60;99.90;;;;;;5014737;28;19906;-78
2022/06/21 08:34:04;;;;;;;;;;;13.50;99.90;;;;;;5014472;28;20015;-75
2022/06/21 08:36:38;;;;;;;;;;;13.50;99.90;;;;;;5014194;28;19906;-77
2022/06/21 08:39:09;;;;;;;;;;;13.40;99.90;;;;;;5014385;28;20376;-76
2022/06/21 08:41:57;;;;;;;;;;;13.30;99.90;;;;;;5014316;28;20297;-78
2022/06/21 08:44:23;;;;;;;;;;;13.20;99.90;;;;;;5014208;28;19949;-78
2022/06/21 08:46:56;;;;;;;;;;;13.20;99.90;;;;;;5014070;28;20278;-78
2022/06/21 08:49:31;;;;;;;;;;;13.10;99.90;;;;;;5014260;28;19905;-78
2022/06/21 08:52:16;;;;;;;;;;;13.10;99.90;;;;;;5014041;28;19912;-77
2022/06/21 08:54:43;;;;;;;;;;;13.10;99.90;;;;;;5014004;28;19913;-77
2022/06/21 08:57:27;;;;;;;;;;;13.10;99.90;;;;;;5013996;28;19906;-78
2022/06/21 09:00:12;;;;;;;;;;;13.00;99.90;;;;;;5016401;28;20386;-78
2022/06/21 09:02:57;;;;;;;;;;;13.00;99.90;;;;;;5018485;28;19905;-78
2022/06/21 09:05:38;;;;;;;;;;;12.90;99.90;;;;;;5017655;28;19909;-78
2022/06/21 09:08:18;;;;;;;;;;;12.80;99.90;;;;;;5018049;28;19914;-76
2022/06/21 09:10:53;;;;;;;;;;;12.70;99.90;;;;;;5017786;28;19917;-77
2022/06/21 09:13:38;;;;;;;;;;;12.70;99.90;;;;;;5017854;28;19952;-78
2022/06/21 09:16:04;;;;;;;;;;;12.60;99.90;;;;;;5016603;28;19913;-74
2022/06/21 09:18:42;;;;;;;;;;;12.60;99.90;;;;;;5018257;28;19920;-77
2022/06/21 09:21:14;;;;;;;;;;;12.60;99.90;;;;;;5017909;28;19909;-73
2022/06/21 09:23:56;;;;;;;;;;;12.40;99.90;;;;;;5017922;28;19905;-78
2022/06/21 09:26:23;;;;;;;;;;;12.40;99.90;;;;;;5018283;28;19905;-78
2022/06/21 09:28:51;;;;;;;;;;;12.30;99.90;;;;;;5017428;28;19910;-78
2022/06/21 09:31:27;;;;;;;;;;;12.30;99.90;;;;;;5017571;28;19906;-78
2022/06/21 09:34:18;;;;;;;;;;;12.30;99.90;;;;;;5017334;28;19964;-78
2022/06/21 09:36:54;;;;;;;;;;;12.20;99.90;;;;;;5017594;28;19949;-77
2022/06/21 09:39:36;;;;;;;;;;;12.10;99.90;;;;;;5017376;28;19913;-78
2022/06/21 09:42:27;;;;;;;;;;;12.10;99.90;;;;;;5017181;28;19932;-77
2022/06/21 09:44:56;;;;;;;;;;;12.00;99.90;;;;;;5017099;28;20287;-78
2022/06/21 09:47:34;;;;;;;;;;;12.00;99.90;;;;;;5017247;28;19951;-73
2022/06/21 09:50:29;;;;;;;;;;;12.00;99.90;;;;;;5017300;28;19905;-77
2022/06/21 09:53:05;;;;;;;;;;;11.90;99.90;;;;;;4998184;28;19913;-79
2022/06/21 09:55:41;;;;;;;;;;;11.90;99.90;;;;;;5016921;28;19996;-75
2022/06/21 09:58:15;;;;;;;;;;;11.90;99.90;;;;;;5016889;28;20323;-78
2022/06/21 10:00:48;;;;;;;;;;;11.80;99.90;;;;;;5016813;28;20385;-78
2022/06/21 10:03:27;;;;;;;;;;;11.80;99.90;;;;;;5016763;28;20354;-79
2022/06/21 10:05:57;;;;;;;;;;;11.80;99.90;;;;;;5016559;28;19921;-79
2022/06/21 10:08:32;;;;;;;;;;;11.70;99.90;;;;;;5017035;28;19941;-79
2022/06/21 10:11:03;;;;;;;;;;;11.70;99.90;;;;;;5016066;28;19909;-77
2022/06/21 10:13:45;;;;;;;;;;;11.60;99.90;;;;;;5016820;28;19905;-78
2022/06/21 10:16:33;;;;;;;;;;;11.60;99.90;;;;;;5016445;28;19906;-77
2022/06/21 10:19:20;;;;;;;;;;;11.60;99.90;;;;;;5016416;28;19919;-77
2022/06/21 10:22:10;;;;;;;;;;;11.50;99.90;;;;;;5014866;28;19917;-72
2022/06/21 10:24:40;;;;;;;;;;;11.50;99.90;;;;;;5014761;28;19943;-78
2022/06/21 10:27:14;;;;;;;;;;;11.50;99.90;;;;;;5012346;28;19920;-78
2022/06/21 10:29:46;;;;;;;;;;;11.40;99.90;;;;;;5011761;28;19905;-74
2022/06/21 10:32:16;;;;;;;;;;;11.40;99.90;;;;;;5014496;28;19964;-78
2022/06/21 10:35:00;;;;;;;;;;;11.40;99.90;;;;;;5011085;28;19992;-77
2022/06/21 10:37:27;;;;;;;;;;;11.30;99.90;;;;;;5013496;28;19914;-76
2022/06/21 10:39:54;;;;;;;;;;;11.30;99.90;;;;;;5012730;28;19913;-77
2022/06/21 10:42:49;;;;;;;;;;;11.30;99.90;;;;;;5012516;28;19945;-77
2022/06/21 10:45:28;;;;;;;;;;;11.30;99.90;;;;;;4982486;28;19905;-77
2022/06/21 10:48:13;;;;;;;;;;;11.20;99.90;;;;;;5011982;28;19910;-77
2022/06/21 10:50:57;;;;;;;;;;;11.20;99.90;;;;;;5011574;28;20052;-77
2022/06/21 10:53:27;;;;;;;;;;;11.20;99.90;;;;;;5012588;28;19910;-77
2022/06/21 10:57:09;;;;;;;;;;;11.20;99.90;;;;;;5014378;28;19909;-73
2022/06/21 10:58:46;;;;;;;;;;;11.10;99.90;;;;;;5012594;28;19924;-75
2022/06/21 11:01:17;;;;;;;;;;;11.10;99.90;;;;;;5013095;28;20355;-77
2022/06/21 11:04:01;;;;;;;;;;;11.10;99.90;;;;;;5011415;28;19917;-76
2022/06/21 11:06:40;;;;;;;;;;;11.10;99.90;;;;;;5010416;28;19917;-77
2022/06/21 11:09:07;;;;;;;;;;;11.10;99.90;;;;;;5009952;28;19913;-74
2022/06/21 11:11:39;;;;;;;;;;;11.10;99.90;;;;;;5012687;28;19905;-77
2022/06/21 11:14:13;;;;;;;;;;;11.10;99.90;;;;;;5011497;28;20001;-75
2022/06/21 11:16:58;;;;;;;;;;;11.10;99.90;;;;;;5010849;28;19956;-76
2022/06/21 11:19:34;;;;;;;;;;;11.10;99.90;;;;;;5002188;28;20433;-76
2022/06/21 11:22:04;;;;;;;;;;;11.10;99.90;;;;;;4999987;28;19909;-77
2022/06/21 11:24:36;;;;;;;;;;;11.10;99.90;;;;;;5014086;28;20444;-77
2022/06/21 11:27:11;;;;;;;;;;;11.00;99.90;;;;;;5005493;28;19909;-77
2022/06/21 11:29:48;;;;;;;;;;;11.00;99.90;;;;;;5014916;28;19913;-78
2022/06/21 11:32:20;;;;;;;;;;;11.00;99.90;;;;;;5014865;28;19919;-77
2022/06/21 11:34:52;;;;;;;;;;;11.00;99.90;;;;;;5012637;28;19996;-78
2022/06/21 11:37:19;;;;;;;;;;;11.00;99.90;;;;;;5011470;28;20023;-78
2022/06/21 11:39:52;;;;;;;;;;;11.00;99.90;;;;;;5012497;28;19949;-77
2022/06/21 11:42:28;;;;;;;;;;;11.00;99.90;;;;;;5006342;28;19947;-77
2022/06/21 11:45:14;;;;;;;;;;;11.00;99.90;;;;;;5001199;28;19948;-76
2022/06/21 11:47:50;;;;;;;;;;;11.00;99.90;;;;;;5003810;28;20458;-78
2022/06/21 11:50:16;;;;;;;;;;;11.00;99.90;;;;;;5014375;28;20274;-79
2022/06/21 11:52:55;;;;;;;;;;;10.90;99.90;;;;;;5014676;28;19912;-79
2022/06/21 11:55:22;;;;;;;;;;;11.00;99.90;;;;;;5013944;28;20326;-76
2022/06/21 11:58:08;;;;;;;;;;;10.90;99.90;;;;;;5014580;28;19909;-78
2022/06/21 12:00:40;;;;;;;;;;;10.90;99.90;;;;;;5014370;28;20004;-79
2022/06/21 12:03:17;;;;;;;;;;;10.90;99.90;;;;;;5014493;28;19905;-79
2022/06/21 12:05:43;;;;;;;;;;;10.90;99.90;;;;;;5014042;28;19915;-79
2022/06/21 12:08:10;;;;;;;;;;;10.90;99.90;;;;;;5014789;28;19962;-78
2022/06/21 12:10:44;;;;;;;;;;;10.90;99.90;;;;;;5014259;28;20367;-78
2022/06/21 12:13:20;;;;;;;;;;;10.90;99.90;;;;;;5014227;28;20275;-78
2022/06/21 12:16:16;;;;;;;;;;;10.90;99.90;;;;;;5013984;28;19952;-78
2022/06/21 12:18:46;;;;;;;;;;;10.90;99.90;;;;;;5013060;28;20007;-77
2022/06/21 12:21:15;;;;;;;;;;;10.90;99.90;;;;;;5014103;28;19905;-77
2022/06/21 12:23:48;;;;;;;;;;;10.80;99.90;;;;;;5014065;28;20343;-77
2022/06/21 12:26:16;;;;;;;;;;;10.80;99.90;;;;;;5013907;28;19916;-76
2022/06/21 12:28:43;;;;;;;;;;;10.80;99.90;;;;;;5014064;28;20004;-75
2022/06/21 12:31:29;;;;;;;;;;;10.80;99.90;;;;;;5013915;28;19912;-78
2022/06/21 12:33:59;;;;;;;;;;;10.80;99.90;;;;;;5013554;28;19906;-77
2022/06/21 12:36:34;;;;;;;;;;;10.80;99.90;;;;;;5013599;28;19906;-75
2022/06/21 12:39:23;;;;;;;;;;;10.80;99.90;;;;;;5013779;28;20040;-75
2022/06/21 12:41:55;;;;;;;;;;;10.80;99.90;;;;;;5014026;28;19916;-75
2022/06/21 12:44:34;;;;;;;;;;;10.80;99.90;;;;;;5013872;28;20377;-75
2022/06/21 12:47:04;;;;;;;;;;;10.70;99.90;;;;;;5013582;28;19912;-75
2022/06/21 12:49:34;;;;;;;;;;;10.60;99.90;;;;;;5012782;28;20278;-74
2022/06/21 12:52:08;;;;;;;;;;;10.60;99.90;;;;;;5014213;28;20438;-75
2022/06/21 12:54:45;;;;;;;;;;;10.70;99.90;;;;;;5013369;28;19909;-74
2022/06/21 12:57:18;;;;;;;;;;;10.70;99.90;;;;;;5013562;28;19905;-74
2022/06/21 12:59:51;;;;;;;;;;;10.60;99.90;;;;;;5013743;28;20012;-76
2022/06/21 13:02:24;;;;;;;;;;;10.60;99.90;;;;;;5014074;28;19906;-75
2022/06/21 13:04:53;;;;;;;;;;;10.60;99.90;;;;;;5013687;28;19987;-76
2022/06/21 13:07:23;;;;;;;;;;;10.60;99.90;;;;;;5013150;28;19918;-75
2022/06/21 13:09:59;;;;;;;;;;;10.60;99.90;;;;;;5013762;28;19909;-75
2022/06/21 13:12:32;;;;;;;;;;;10.60;99.90;;;;;;5013676;28;19988;-76
2022/06/21 13:15:14;;;;;;;;;;;10.60;99.90;;;;;;5013445;28;19967;-75
2022/06/21 13:17:44;;;;;;;;;;;10.60;99.90;;;;;;5013296;28;19913;-75
2022/06/21 13:20:21;;;;;;;;;;;10.60;99.90;;;;;;5013761;28;19905;-75
2022/06/21 13:22:47;;;;;;;;;;;10.50;99.90;;;;;;5013552;28;19913;-76
2022/06/21 13:25:40;;;;;;;;;;;10.50;99.90;;;;;;5013461;28;19905;-75
2022/06/21 13:28:26;;;;;;;;;;;10.50;99.90;;;;;;5012420;28;20278;-76
2022/06/21 13:31:01;;;;;;;;;;;10.40;99.90;;;;;;5012181;28;19910;-75
2022/06/21 13:33:27;;;;;;;;;;;10.50;99.90;;;;;;5013180;28;19912;-75
2022/06/21 13:35:54;;;;;;;;;;;10.40;99.90;;;;;;5013323;28;19909;-76
2022/06/21 13:38:39;;;;;;;;;;;10.40;99.90;;;;;;5013412;28;20349;-75
2022/06/21 13:42:37;;;;;;;;;;;10.40;99.90;;;;;;5011139;28;19951;-75
2022/06/21 13:44:02;;;;;;;;;;;10.30;99.90;;;;;;5012978;28;19906;-76
2022/06/21 13:46:32;;;;;;;;;;;10.40;99.90;;;;;;5013896;28;20394;-76
2022/06/21 13:49:14;;;;;;;;;;;10.40;99.90;;;;;;5017139;28;19905;-76
2022/06/21 13:51:53;;;;;;;;;;;10.40;99.90;;;;;;5017134;28;19905;-77
2022/06/21 13:54:28;;;;;;;;;;;10.40;99.90;;;;;;5017263;28;19905;-76
2022/06/21 13:57:13;;;;;;;;;;;10.40;99.90;;;;;;5016954;28;19905;-76
2022/06/21 13:59:50;;;;;;;;;;;10.40;99.90;;;;;;5017006;28;20290;-77
2022/06/21 14:02:27;;;;;;;;;;;10.40;99.90;;;;;;5017083;28;20278;-77
2022/06/21 14:05:13;;;;;;;;;;;10.30;99.90;;;;;;5016793;28;20374;-76
2022/06/21 14:07:39;;;;;;;;;;;10.30;99.90;;;;;;5016626;28;19917;-76
2022/06/21 14:10:21;;;;;;;;;;;10.30;99.90;;;;;;5017100;28;19906;-75
2022/06/21 14:12:58;;;;;;;;;;;10.30;99.90;;;;;;5016837;28;19905;-75
2022/06/21 14:15:32;;;;;;;;;;;10.40;99.90;;;;;;5016703;28;20374;-76
2022/06/21 14:18:17;;;;;;;;;;;10.40;99.90;;;;;;5016782;28;19910;-76
2022/06/21 14:20:44;;;;;;;;;;;10.30;99.90;;;;;;5016604;28;19929;-76
2022/06/21 14:23:26;;;;;;;;;;;10.30;99.90;;;;;;5017096;28;19912;-76
2022/06/21 14:25:53;;;;;;;;;;;10.30;99.90;;;;;;5016751;28;19988;-76
2022/06/21 14:28:30;;;;;;;;;;;10.30;99.90;;;;;;5016543;28;20262;-76
2022/06/21 14:31:20;;;;;;;;;;;10.40;99.90;;;;;;5014160;28;19941;-76
2022/06/21 14:34:04;;;;;;;;;;;10.40;99.90;;;;;;5006982;28;19960;-76
2022/06/21 14:36:33;;;;;;;;;;;10.50;99.90;;;;;;5005876;28;20035;-76
2022/06/21 14:39:08;;;;;;;;;;;10.50;99.90;;;;;;5006747;28;19913;-76
2022/06/21 14:41:35;;;;;;;;;;;10.40;99.90;;;;;;5005689;28;19913;-76
2022/06/21 14:44:06;;;;;;;;;;;10.40;99.90;;;;;;5007540;28;19937;-76
2022/06/21 14:46:35;;;;;;;;;;;10.30;99.90;;;;;;5016173;28;19928;-77
2022/06/21 14:49:02;;;;;;;;;;;10.30;99.90;;;;;;5016063;28;20349;-76
2022/06/21 14:51:28;;;;;;;;;;;10.20;99.90;;;;;;5016406;28;19959;-77
2022/06/21 14:54:14;;;;;;;;;;;10.20;99.90;;;;;;5015956;28;19909;-76
2022/06/21 14:56:56;;;;;;;;;;;10.20;99.90;;;;;;5015673;28;19906;-76
2022/06/21 14:59:42;;;;;;;;;;;10.20;99.90;;;;;;5016051;28;19983;-77